createdAt,value
2018-09-05T00:01:58.805Z,25.63
2018-09-05T00:04:32.605Z,27.60
2018-09-05T00:07:06.728Z,26.33
2018-09-05T00:09:40.538Z,25.70
2018-09-05T00:12:14.740Z,26.20
2018-09-05T00:14:48.610Z,26.77
2018-09-05T00:17:22.586Z,27.27
2018-09-05T00:19:56.660Z,28.70
2018-09-05T00:22:30.656Z,27.33
2018-09-05T00:25:04.554Z,26.33
2018-09-05T00:27:38.516Z,26.30
2018-09-05T00:30:13.123Z,26.33
2018-09-05T00:32:47.548Z,27.07
2018-09-05T00:35:21.569Z,25.30
2018-09-05T00:37:55.561Z,25.37
2018-09-05T00:40:29.330Z,24.73
2018-09-05T00:43:03.378Z,27.03
2018-09-05T00:45:37.348Z,25.33
2018-09-05T00:48:11.305Z,25.20
2018-09-05T00:50:45.378Z,26.23
2018-09-05T00:53:19.741Z,26.10
2018-09-05T00:55:53.795Z,26.27
2018-09-05T00:58:27.645Z,26.50
2018-09-05T01:01:01.444Z,24.77
2018-09-05T01:03:35.193Z,23.53
2018-09-05T01:06:09.264Z,24.53
2018-09-05T01:08:43.165Z,25.43
2018-09-05T01:11:17.222Z,24.47
2018-09-05T01:13:52.106Z,26.30
2018-09-05T01:16:26.274Z,26.07
2018-09-05T01:19:00.900Z,24.10
2018-09-05T01:21:34.840Z,24.07
2018-09-05T01:24:08.919Z,24.43
2018-09-05T01:26:43.020Z,24.83
2018-09-05T01:29:16.924Z,24.53
2018-09-05T01:31:50.816Z,25.70
2018-09-05T01:34:24.849Z,25.30
2018-09-05T01:36:59.056Z,25.70
2018-09-05T01:39:33.198Z,25.20
2018-09-05T01:42:08.164Z,25.20
2018-09-05T01:44:42.340Z,23.53
2018-09-05T01:47:16.757Z,23.17
2018-09-05T01:49:51.144Z,24.70
2018-09-05T01:52:25.073Z,23.93
2018-09-05T01:54:59.102Z,23.90
2018-09-05T01:57:33.166Z,23.43
2018-09-05T02:00:11.800Z,24.40
2018-09-05T02:02:45.743Z,22.73
2018-09-05T02:05:19.686Z,22.53
2018-09-05T02:07:53.554Z,22.30
2018-09-05T02:10:27.738Z,23.13
2018-09-05T02:13:01.958Z,22.77
2018-09-05T02:15:35.960Z,23.07
2018-09-05T02:18:10.216Z,23.53
2018-09-05T02:20:43.870Z,23.63
2018-09-05T02:23:18.380Z,23.33
2018-09-05T02:25:52.595Z,24.17
2018-09-05T02:28:26.405Z,24.03
2018-09-05T02:31:00.303Z,24.73
2018-09-05T02:33:34.408Z,22.30
2018-09-05T02:36:08.439Z,21.10
2018-09-05T02:38:49.023Z,22.87
2018-09-05T02:41:22.935Z,23.17
2018-09-05T02:44:02.309Z,23.13
2018-09-05T02:46:36.310Z,23.80
2018-09-05T02:49:10.504Z,22.17
2018-09-05T02:51:44.535Z,23.10
2018-09-05T02:54:18.281Z,22.63
2018-09-05T02:56:52.173Z,23.57
2018-09-05T02:59:26.059Z,22.83
2018-09-05T03:02:00.305Z,24.40
2018-09-05T03:04:34.566Z,22.00
2018-09-05T03:07:08.614Z,23.03
2018-09-05T03:09:43.099Z,21.23
2018-09-05T03:12:18.878Z,21.97
2018-09-05T03:14:52.869Z,22.93
2018-09-05T03:17:26.814Z,23.07
2018-09-05T03:20:00.829Z,23.47
2018-09-05T03:22:34.718Z,21.27
2018-09-05T03:25:08.532Z,20.43
2018-09-05T03:27:42.462Z,21.60
2018-09-05T03:30:47.404Z,23.70
2018-09-05T03:33:21.333Z,24.07
2018-09-05T03:35:55.178Z,23.03
2018-09-05T03:38:29.245Z,22.37
2018-09-05T03:41:03.209Z,22.97
2018-09-05T03:43:37.356Z,23.10
2018-09-05T03:46:11.423Z,21.77
2018-09-05T03:48:45.330Z,22.30
2018-09-05T03:51:20.216Z,21.23
2018-09-05T03:53:54.009Z,22.47
2018-09-05T03:56:27.897Z,23.07
2018-09-05T03:59:02.000Z,22.47
2018-09-05T04:01:36.008Z,20.63
2018-09-05T04:04:09.931Z,21.20
2018-09-05T04:06:43.783Z,22.50
2018-09-05T04:09:17.773Z,23.13
2018-09-05T04:11:51.543Z,22.93
2018-09-05T04:14:25.558Z,22.83
2018-09-05T04:17:00.780Z,21.83
2018-09-05T04:19:34.905Z,23.23
2018-09-05T04:22:08.651Z,23.40
2018-09-05T04:24:42.739Z,22.67
2018-09-05T04:27:16.678Z,21.70
2018-09-05T04:29:50.918Z,22.30
2018-09-05T04:32:24.981Z,21.40
2018-09-05T04:34:58.930Z,21.67
2018-09-05T04:37:32.829Z,21.53
2018-09-05T04:40:07.695Z,22.27
2018-09-05T04:42:41.674Z,22.97
2018-09-05T04:45:15.413Z,23.87
2018-09-05T04:47:49.455Z,23.13
2018-09-05T04:50:30.177Z,23.20
2018-09-05T04:53:04.126Z,22.03
2018-09-05T04:55:38.206Z,23.10
2018-09-05T04:58:12.101Z,23.00
2018-09-05T05:00:46.008Z,22.00
2018-09-05T05:03:20.099Z,21.53
2018-09-05T05:05:54.266Z,22.27
2018-09-05T05:08:28.284Z,22.73
2018-09-05T05:11:02.561Z,22.77
2018-09-05T05:13:36.579Z,23.10
2018-09-05T05:16:10.550Z,22.47
2018-09-05T05:18:44.488Z,20.90
2018-09-05T05:21:18.679Z,21.17
2018-09-05T05:23:52.656Z,22.50
2018-09-05T05:26:26.952Z,22.10
2018-09-05T05:29:01.017Z,22.90
2018-09-05T05:31:34.775Z,21.60
2018-09-05T05:34:08.768Z,22.37
2018-09-05T05:36:42.555Z,22.13
2018-09-05T05:39:16.389Z,21.73
2018-09-05T05:41:50.475Z,22.17
2018-09-05T05:44:24.431Z,20.90
2018-09-05T05:46:58.430Z,19.50
2018-09-05T05:49:32.380Z,20.37
2018-09-05T05:52:06.914Z,21.73
2018-09-05T05:54:41.036Z,22.63
2018-09-05T05:57:14.990Z,21.77
2018-09-05T05:59:48.985Z,22.67
2018-09-05T06:02:23.021Z,22.23
2018-09-05T06:04:56.906Z,22.17
2018-09-05T06:07:30.870Z,21.70
2018-09-05T06:10:05.029Z,23.33
2018-09-05T06:12:38.999Z,22.30
2018-09-05T06:15:13.029Z,22.10
2018-09-05T06:17:46.867Z,23.17
2018-09-05T06:20:20.929Z,22.07
2018-09-05T06:22:54.785Z,22.23
2018-09-05T06:25:28.889Z,22.43
2018-09-05T06:28:03.602Z,21.67
2018-09-05T06:30:37.646Z,20.43
2018-09-05T06:33:11.386Z,20.80
2018-09-05T06:35:45.654Z,21.23
2018-09-05T06:38:19.440Z,19.07
2018-09-05T06:40:53.896Z,20.70
2018-09-05T06:43:27.754Z,19.90
2018-09-05T06:46:02.063Z,19.23
2018-09-05T06:48:36.541Z,19.83
2018-09-05T06:51:10.769Z,20.30
2018-09-05T06:53:45.248Z,20.15
2018-09-05T06:56:19.179Z,19.37
2018-09-05T06:58:53.219Z,18.90
2018-09-05T07:01:27.576Z,19.67
2018-09-05T07:04:08.329Z,20.50
2018-09-05T07:06:45.606Z,20.40
2018-09-05T07:09:19.561Z,20.60
2018-09-05T07:11:53.450Z,19.57
2018-09-05T07:14:27.497Z,18.25
2018-09-05T07:17:01.629Z,18.37
2018-09-05T07:19:35.459Z,18.48
2018-09-05T07:22:09.500Z,17.90
2018-09-05T07:24:43.262Z,18.00
2018-09-05T07:27:17.330Z,17.80
2018-09-05T07:29:51.412Z,17.07
2018-09-05T07:32:25.597Z,16.97
2018-09-05T07:34:59.731Z,17.00
2018-09-05T07:37:33.739Z,16.07
2018-09-05T07:40:07.836Z,16.48
2018-09-05T07:42:41.659Z,16.90
2018-09-05T07:45:15.682Z,15.28
2018-09-05T07:47:49.784Z,14.18
2018-09-05T07:50:23.754Z,14.05
2018-09-05T07:52:57.609Z,14.43
2018-09-05T07:55:31.432Z,12.78
2018-09-05T07:58:05.688Z,12.35
2018-09-05T08:00:39.745Z,13.95
2018-09-05T08:03:14.236Z,13.95
2018-09-05T08:05:48.274Z,13.08
2018-09-05T08:08:22.334Z,13.18
2018-09-05T08:10:56.321Z,13.00
2018-09-05T08:13:30.675Z,12.07
2018-09-05T08:16:05.183Z,11.83
2018-09-05T08:18:39.158Z,12.20
2018-09-05T08:21:13.897Z,10.45
2018-09-05T08:23:47.839Z,12.65
2018-09-05T08:26:21.945Z,11.73
2018-09-05T08:28:55.746Z,9.98
2018-09-05T08:31:29.844Z,9.58
2018-09-05T08:34:03.812Z,10.25
2018-09-05T08:36:38.203Z,9.93
2018-09-05T08:39:13.643Z,9.50
2018-09-05T08:41:47.660Z,8.45
2018-09-05T08:44:21.527Z,8.88
2018-09-05T08:46:55.657Z,8.25
2018-09-05T08:49:29.883Z,8.48
2018-09-05T08:52:03.758Z,8.40
2018-09-05T08:54:38.818Z,7.50
2018-09-05T08:57:13.070Z,8.18
2018-09-05T08:59:47.439Z,7.85
2018-09-05T09:02:21.633Z,8.13
2018-09-05T09:04:55.708Z,8.20
2018-09-05T09:07:29.693Z,7.10
2018-09-05T09:10:04.242Z,7.33
2018-09-05T09:12:38.412Z,7.75
2018-09-05T09:15:12.369Z,7.20
2018-09-05T09:17:46.206Z,7.55
2018-09-05T09:20:20.230Z,7.35
2018-09-05T09:22:54.471Z,7.78
2018-09-05T09:25:28.330Z,7.30
2018-09-05T09:28:02.581Z,7.15
2018-09-05T09:30:36.505Z,7.40
2018-09-05T09:33:10.604Z,7.15
2018-09-05T09:35:44.562Z,6.70
2018-09-05T09:38:18.833Z,7.35
2018-09-05T09:40:52.639Z,6.92
2018-09-05T09:43:26.867Z,6.67
2018-09-05T09:46:00.784Z,7.58
2018-09-05T09:48:34.797Z,6.97
2018-09-05T09:51:08.683Z,6.72
2018-09-05T09:53:42.786Z,6.78
2018-09-05T09:56:16.601Z,6.65
2018-09-05T09:58:50.500Z,7.30
2018-09-05T10:01:30.224Z,7.30
2018-09-05T10:04:09.852Z,7.10
2018-09-05T10:06:50.251Z,6.60
2018-09-05T10:09:33.089Z,6.72
2018-09-05T10:12:12.526Z,6.83
2018-09-05T10:14:52.198Z,7.20
2018-09-05T10:17:33.635Z,7.15
2018-09-05T10:20:07.934Z,7.35
2018-09-05T10:22:41.798Z,7.42
2018-09-05T10:25:15.980Z,8.15
2018-09-05T10:27:49.970Z,7.42
2018-09-05T10:30:24.167Z,7.90
2018-09-05T10:32:58.688Z,7.78
2018-09-05T10:35:32.734Z,7.95
2018-09-05T10:38:06.739Z,8.10
2018-09-05T10:40:41.167Z,7.47
2018-09-05T10:43:15.995Z,7.70
2018-09-05T10:45:49.879Z,7.20
2018-09-05T10:48:24.231Z,7.80
2018-09-05T10:50:58.135Z,7.33
2018-09-05T10:53:31.999Z,7.67
2018-09-05T10:56:06.892Z,7.33
2018-09-05T10:58:40.973Z,7.15
2018-09-05T11:01:15.124Z,7.70
2018-09-05T11:03:49.221Z,6.80
2018-09-05T11:06:23.117Z,7.28
2018-09-05T11:08:57.300Z,6.90
2018-09-05T11:11:31.131Z,8.18
2018-09-05T11:14:05.376Z,6.90
2018-09-05T11:16:39.720Z,7.42
2018-09-05T11:19:13.744Z,6.95
2018-09-05T11:21:47.676Z,7.22
2018-09-05T11:24:21.560Z,7.42
2018-09-05T11:26:55.548Z,7.53
2018-09-05T11:29:29.406Z,7.40
2018-09-05T11:32:03.629Z,6.75
2018-09-05T11:34:37.584Z,6.78
2018-09-05T11:37:11.764Z,6.80
2018-09-05T11:39:45.460Z,7.15
2018-09-05T11:42:19.274Z,6.92
2018-09-05T11:44:53.171Z,7.33
2018-09-05T11:47:27.429Z,6.95
2018-09-05T11:50:01.658Z,7.25
2018-09-05T11:52:35.620Z,6.75
2018-09-05T11:55:09.472Z,7.05
2018-09-05T11:57:43.451Z,6.42
2018-09-05T12:00:18.015Z,6.78
2018-09-05T12:02:52.194Z,6.75
2018-09-05T12:05:26.370Z,6.40
2018-09-05T12:08:00.396Z,7.05
2018-09-05T12:10:34.406Z,6.17
2018-09-05T12:13:08.220Z,6.20
2018-09-05T12:15:42.358Z,6.92
2018-09-05T12:18:16.358Z,6.75
2018-09-05T12:20:50.377Z,6.85
2018-09-05T12:23:24.486Z,6.37
2018-09-05T12:25:58.673Z,6.30
2018-09-05T12:28:32.839Z,6.67
2018-09-05T12:31:06.906Z,6.47
2018-09-05T12:33:40.867Z,6.55
2018-09-05T12:36:15.171Z,6.03
2018-09-05T12:38:49.130Z,5.87
2018-09-05T12:41:23.063Z,5.97
2018-09-05T12:43:57.125Z,5.85
2018-09-05T12:46:31.956Z,5.83
2018-09-05T12:49:06.015Z,6.25
2018-09-05T12:51:40.218Z,6.28
2018-09-05T12:54:14.410Z,6.05
2018-09-05T12:56:48.965Z,6.33
2018-09-05T12:59:23.022Z,5.50
2018-09-05T13:01:57.019Z,6.50
2018-09-05T13:04:31.062Z,5.55
2018-09-05T13:07:05.234Z,5.70
2018-09-05T13:09:39.204Z,5.80
2018-09-05T13:12:13.512Z,5.30
2018-09-05T13:14:47.542Z,5.65
2018-09-05T13:17:21.660Z,5.62
2018-09-05T13:19:55.776Z,5.95
2018-09-05T13:22:29.768Z,6.08
2018-09-05T13:25:03.867Z,5.80
2018-09-05T13:27:37.744Z,5.50
2018-09-05T13:30:11.913Z,4.85
2018-09-05T13:32:46.091Z,5.42
2018-09-05T13:35:20.305Z,5.60
2018-09-05T13:37:54.199Z,5.00
2018-09-05T13:40:28.091Z,6.03
2018-09-05T13:43:02.961Z,5.58
2018-09-05T13:45:37.315Z,5.75
2018-09-05T13:48:12.134Z,5.80
2018-09-05T13:50:46.375Z,6.40
2018-09-05T13:53:20.249Z,6.12
2018-09-05T13:55:54.121Z,6.00
2018-09-05T13:58:28.506Z,6.10
2018-09-05T14:01:02.627Z,5.87
2018-09-05T14:03:36.952Z,6.08
2018-09-05T14:06:10.849Z,6.17
2018-09-05T14:08:44.824Z,6.28
2018-09-05T14:11:18.780Z,6.40
2018-09-05T14:13:52.887Z,6.85
2018-09-05T14:16:26.999Z,6.47
2018-09-05T14:19:00.871Z,6.50
2018-09-05T14:21:34.764Z,6.58
2018-09-05T14:24:08.700Z,5.80
2018-09-05T14:26:42.810Z,6.12
2018-09-05T14:29:16.631Z,5.87
2018-09-05T14:31:50.729Z,5.97
2018-09-05T14:34:24.761Z,5.92
2018-09-05T14:36:58.779Z,6.25
2018-09-05T14:39:32.756Z,5.95
2018-09-05T14:42:06.896Z,5.33
2018-09-05T14:44:41.076Z,6.67
2018-09-05T14:47:14.929Z,6.53
2018-09-05T14:49:49.215Z,6.67
2018-09-05T14:52:23.596Z,6.60
2018-09-05T14:54:57.551Z,6.60
2018-09-05T14:57:31.625Z,6.47
2018-09-05T15:00:05.971Z,6.70
2018-09-05T15:02:40.149Z,6.58
2018-09-05T15:05:14.017Z,6.47
2018-09-05T15:07:49.442Z,6.50
2018-09-05T15:10:24.216Z,6.50
2018-09-05T15:12:58.061Z,6.30
2018-09-05T15:15:32.081Z,6.45
2018-09-05T15:18:06.214Z,6.47
2018-09-05T15:20:40.699Z,6.20
2018-09-05T15:23:14.535Z,7.05
2018-09-05T15:25:48.353Z,6.80
2018-09-05T15:28:22.440Z,7.12
2018-09-05T15:30:56.412Z,7.03
2018-09-05T15:33:30.396Z,6.80
2018-09-05T15:36:04.754Z,6.47
2018-09-05T15:38:38.502Z,6.58
2018-09-05T15:41:12.424Z,6.05
2018-09-05T15:43:46.417Z,6.45
2018-09-05T15:46:20.557Z,9.93
2018-09-05T15:48:54.411Z,6.40
2018-09-05T15:51:28.679Z,6.58
2018-09-05T15:54:03.036Z,6.60
2018-09-05T15:56:37.380Z,7.03
2018-09-05T15:59:11.276Z,7.12
2018-09-05T16:01:45.409Z,6.50
2018-09-05T16:04:19.658Z,7.25
2018-09-05T16:06:53.539Z,7.22
2018-09-05T16:09:27.754Z,5.87
2018-09-05T16:12:01.755Z,6.33
2018-09-05T16:14:35.836Z,6.85
2018-09-05T16:17:09.894Z,6.53
2018-09-05T16:19:44.022Z,6.75
2018-09-05T16:22:18.070Z,6.37
2018-09-05T16:24:52.194Z,6.60
2018-09-05T16:27:26.249Z,6.80
2018-09-05T16:30:05.476Z,6.40
2018-09-05T16:32:39.440Z,7.50
2018-09-05T16:35:13.449Z,6.22
2018-09-05T16:37:48.142Z,6.10
2018-09-05T16:40:22.404Z,6.40
2018-09-05T16:42:56.349Z,6.47
2018-09-05T16:45:31.289Z,6.72
2018-09-05T16:48:05.971Z,6.28
2018-09-05T16:50:40.157Z,5.62
2018-09-05T16:53:14.171Z,6.20
2018-09-05T16:55:48.875Z,6.78
2018-09-05T16:58:23.014Z,6.40
2018-09-05T17:00:58.019Z,6.62
2018-09-05T17:03:31.768Z,6.62
2018-09-05T17:06:05.995Z,6.95
2018-09-05T17:08:40.004Z,6.37
2018-09-05T17:11:14.101Z,6.80
2018-09-05T17:13:48.783Z,6.47
2018-09-05T17:16:23.052Z,6.87
2018-09-05T17:18:58.291Z,6.85
2018-09-05T17:21:32.859Z,6.50
2018-09-05T17:24:07.094Z,6.92
2018-09-05T17:26:41.281Z,6.90
2018-09-05T17:29:15.153Z,6.58
2018-09-05T17:31:49.732Z,6.60
2018-09-05T17:34:23.823Z,6.12
2018-09-05T17:36:57.957Z,6.85
2018-09-05T17:39:32.214Z,6.30
2018-09-05T17:42:06.381Z,6.37
2018-09-05T17:44:40.641Z,6.65
2018-09-05T17:47:14.691Z,6.42
2018-09-05T17:49:49.578Z,6.50
2018-09-05T17:52:24.116Z,6.97
2018-09-05T17:54:58.204Z,6.85
2018-09-05T17:57:32.494Z,7.05
2018-09-05T18:00:06.817Z,6.72
2018-09-05T18:02:40.985Z,6.45
2018-09-05T18:05:15.361Z,7.00
2018-09-05T18:07:49.481Z,6.37
2018-09-05T18:10:23.386Z,6.90
2018-09-05T18:12:57.280Z,7.12
2018-09-05T18:15:31.078Z,6.78
2018-09-05T18:18:05.140Z,6.92
2018-09-05T18:20:39.261Z,7.10
2018-09-05T18:23:13.638Z,6.80
2018-09-05T18:25:47.641Z,6.75
2018-09-05T18:28:21.852Z,6.78
2018-09-05T18:30:55.862Z,7.00
2018-09-05T18:33:30.121Z,7.22
2018-09-05T18:36:04.323Z,6.50
2018-09-05T18:38:38.372Z,7.03
2018-09-05T18:41:12.443Z,6.80
2018-09-05T18:43:46.899Z,7.17
2018-09-05T18:46:21.080Z,6.42
2018-09-05T18:48:55.352Z,6.87
2018-09-05T18:51:29.071Z,6.60
2018-09-05T18:54:03.291Z,7.17
2018-09-05T18:56:37.216Z,6.70
2018-09-05T18:59:11.499Z,6.55
2018-09-05T19:01:45.417Z,6.72
2018-09-05T19:04:19.325Z,6.40
2018-09-05T19:06:53.590Z,6.80
2018-09-05T19:09:27.834Z,6.55
2018-09-05T19:12:01.910Z,6.12
2018-09-05T19:14:36.070Z,6.85
2018-09-05T19:17:10.196Z,6.15
2018-09-05T19:19:44.253Z,6.83
2018-09-05T19:22:18.253Z,6.58
2018-09-05T19:24:52.410Z,7.22
2018-09-05T19:27:26.556Z,6.90
2018-09-05T19:30:00.787Z,5.95
2018-09-05T19:32:34.919Z,6.70
2018-09-05T19:35:08.879Z,7.10
2018-09-05T19:37:42.813Z,6.70
2018-09-05T19:40:16.814Z,6.40
2018-09-05T19:42:50.840Z,7.00
2018-09-05T19:45:25.176Z,6.80
2018-09-05T19:47:59.796Z,7.35
2018-09-05T19:50:34.104Z,7.35
2018-09-05T19:53:08.125Z,7.20
2018-09-05T19:55:42.305Z,6.92
2018-09-05T19:58:16.250Z,6.92
2018-09-05T20:00:50.440Z,7.03
2018-09-05T20:03:25.176Z,6.97
2018-09-05T20:05:59.696Z,7.75
2018-09-05T20:08:33.784Z,7.35
2018-09-05T20:11:07.965Z,6.95
2018-09-05T20:13:42.248Z,7.65
2018-09-05T20:16:16.343Z,7.37
2018-09-05T20:18:50.975Z,7.55
2018-09-05T20:21:24.920Z,7.50
2018-09-05T20:23:59.174Z,7.65
2018-09-05T20:26:33.392Z,7.80
2018-09-05T20:29:07.535Z,7.67
2018-09-05T20:31:41.778Z,7.40
2018-09-05T20:34:15.587Z,7.30
2018-09-05T20:36:49.640Z,7.55
2018-09-05T20:39:23.538Z,7.92
2018-09-05T20:41:57.669Z,7.60
2018-09-05T20:44:31.521Z,7.80
2018-09-05T20:47:05.530Z,7.95
2018-09-05T20:49:39.715Z,7.53
2018-09-05T20:52:13.712Z,8.23
2018-09-05T20:54:47.899Z,7.72
2018-09-05T20:57:21.787Z,8.48
2018-09-05T20:59:55.930Z,8.75
2018-09-05T21:02:30.196Z,8.70
2018-09-05T21:05:04.725Z,8.95
2018-09-05T21:07:39.046Z,8.43
2018-09-05T21:10:13.365Z,8.18
2018-09-05T21:12:47.317Z,8.50
2018-09-05T21:15:21.506Z,7.92
2018-09-05T21:17:56.333Z,8.25
2018-09-05T21:20:30.654Z,8.28
2018-09-05T21:23:05.280Z,7.95
2018-09-05T21:25:39.227Z,8.70
2018-09-05T21:28:13.315Z,7.92
2018-09-05T21:30:47.441Z,8.05
2018-09-05T21:33:21.450Z,8.35
2018-09-05T21:35:56.221Z,8.13
2018-09-05T21:38:30.244Z,8.90
2018-09-05T21:41:04.439Z,8.58
2018-09-05T21:43:38.708Z,9.50
2018-09-05T21:46:12.644Z,9.33
2018-09-05T21:48:46.804Z,9.03
2018-09-05T21:51:20.930Z,9.55
2018-09-05T21:53:54.792Z,9.50
2018-09-05T21:56:28.809Z,9.10
2018-09-05T21:59:02.764Z,9.03
2018-09-05T22:01:37.341Z,9.38
2018-09-05T22:04:11.402Z,8.73
2018-09-05T22:06:46.460Z,9.68
2018-09-05T22:09:20.376Z,9.48
2018-09-05T22:11:54.258Z,9.33
2018-09-05T22:14:28.226Z,9.25
2018-09-05T22:17:02.069Z,8.63
2018-09-05T22:19:35.921Z,8.90
2018-09-05T22:22:09.720Z,8.80
2018-09-05T22:24:43.689Z,9.08
2018-09-05T22:27:17.636Z,8.53
2018-09-05T22:29:51.919Z,8.83
2018-09-05T22:32:25.775Z,9.20
2018-09-05T22:34:59.656Z,8.03
2018-09-05T22:37:34.929Z,8.40
2018-09-05T22:40:09.080Z,8.20
2018-09-05T22:42:54.518Z,8.58
2018-09-05T22:47:53.035Z,8.35
2018-09-05T22:50:46.964Z,8.18
2018-09-05T22:53:40.446Z,7.85
2018-09-05T22:57:27.001Z,8.60
2018-09-05T23:00:15.220Z,7.35
2018-09-05T23:04:02.145Z,7.83
2018-09-05T23:06:47.389Z,8.63
2018-09-05T23:10:35.512Z,7.35
2018-09-05T23:14:24.583Z,8.15
2018-09-05T23:19:14.389Z,9.25
2018-09-05T23:21:48.439Z,8.25
2018-09-05T23:24:22.959Z,8.20
2018-09-05T23:26:57.081Z,8.03
2018-09-05T23:29:30.991Z,7.95
2018-09-05T23:32:11.984Z,8.48
2018-09-05T23:34:46.229Z,8.03
2018-09-05T23:37:20.129Z,7.65
2018-09-05T23:39:54.311Z,7.58
2018-09-05T23:42:28.120Z,7.28
2018-09-05T23:45:02.731Z,7.20
2018-09-05T23:47:36.690Z,7.87
2018-09-05T23:50:10.631Z,7.12
2018-09-05T23:52:45.219Z,7.65
2018-09-05T23:55:18.960Z,8.40
2018-09-05T23:57:53.863Z,7.62
